createdAt,value
2022-08-28T00:00:25.977Z,18.99
2022-08-28T00:02:54.502Z,19.06
2022-08-28T00:05:24.415Z,19.10
2022-08-28T00:07:51.140Z,19.11
2022-08-28T00:10:22.603Z,19.08
2022-08-28T00:12:50.804Z,19.04
2022-08-28T00:15:22.110Z,19.06
2022-08-28T00:17:49.671Z,19.12
2022-08-28T00:20:18.768Z,18.99
2022-08-28T00:22:46.072Z,18.98
2022-08-28T00:25:14.203Z,18.88
2022-08-28T00:27:52.738Z,18.91
2022-08-28T00:30:36.569Z,18.91
2022-08-28T00:33:13.784Z,18.88
2022-08-28T00:35:42.421Z,18.86
2022-08-28T00:38:11.127Z,18.78
2022-08-28T00:40:40.188Z,18.63
2022-08-28T00:43:08.666Z,18.42
2022-08-28T00:45:39.556Z,18.03
2022-08-28T00:48:06.941Z,18.03
2022-08-28T00:50:56.807Z,18.01
2022-08-28T00:53:30.087Z,17.92
2022-08-28T00:56:04.136Z,17.83
2022-08-28T00:58:34.261Z,17.83
2022-08-28T01:01:01.489Z,17.82
2022-08-28T01:03:28.384Z,17.90
2022-08-28T01:05:55.692Z,17.89
2022-08-28T01:08:23.057Z,17.85
2022-08-28T01:10:54.533Z,17.85
2022-08-28T01:13:22.393Z,17.90
2022-08-28T01:15:50.247Z,17.90
2022-08-28T01:18:18.418Z,17.88
2022-08-28T01:21:05.580Z,17.86
2022-08-28T01:23:55.787Z,17.94
2022-08-28T01:26:23.082Z,17.99
2022-08-28T01:28:50.058Z,18.01
2022-08-28T01:31:17.261Z,18.06
2022-08-28T01:33:46.645Z,18.02
2022-08-28T01:36:14.588Z,18.06
2022-08-28T01:38:43.615Z,18.06
2022-08-28T01:41:13.916Z,18.02
2022-08-28T01:43:41.942Z,17.95
2022-08-28T01:46:09.928Z,17.89
2022-08-28T01:48:40.093Z,17.90
2022-08-28T01:51:07.085Z,17.85
2022-08-28T01:53:34.270Z,17.79
2022-08-28T01:56:04.754Z,17.74
2022-08-28T01:58:37.453Z,17.53
2022-08-28T02:01:09.895Z,17.54
2022-08-28T02:03:36.699Z,17.42
2022-08-28T02:06:03.647Z,17.42
2022-08-28T02:08:30.285Z,17.38
2022-08-28T02:10:57.249Z,17.35
2022-08-28T02:13:25.683Z,17.35
2022-08-28T02:15:52.525Z,17.34
2022-08-28T02:18:19.253Z,17.32
2022-08-28T02:20:46.643Z,17.26
2022-08-28T02:23:14.252Z,17.26
2022-08-28T02:25:40.895Z,17.16
2022-08-28T02:28:07.884Z,17.19
2022-08-28T02:30:35.543Z,17.20
2022-08-28T02:33:02.229Z,17.21
2022-08-28T02:35:28.815Z,17.20
2022-08-28T02:37:55.649Z,17.22
2022-08-28T02:40:24.085Z,17.18
2022-08-28T02:42:52.113Z,17.17
2022-08-28T02:45:20.015Z,17.09
2022-08-28T02:47:48.165Z,17.17
2022-08-28T02:50:18.031Z,17.17
2022-08-28T02:52:44.731Z,17.16
2022-08-28T02:55:13.389Z,17.12
2022-08-28T02:57:40.490Z,16.99
2022-08-28T03:00:12.838Z,17.02
2022-08-28T03:02:41.194Z,17.13
2022-08-28T03:05:09.190Z,17.16
2022-08-28T03:07:35.858Z,17.17
2022-08-28T03:10:03.813Z,17.17
2022-08-28T03:12:30.474Z,17.13
2022-08-28T03:14:57.070Z,17.07
2022-08-28T03:17:23.681Z,17.07
2022-08-28T03:19:50.790Z,17.02
2022-08-28T03:22:39.030Z,16.99
2022-08-28T03:25:06.824Z,17.04
2022-08-28T03:27:33.648Z,17.07
2022-08-28T03:30:00.274Z,17.13
2022-08-28T03:32:26.943Z,17.18
2022-08-28T03:34:55.977Z,17.19
2022-08-28T03:37:22.636Z,17.23
2022-08-28T03:39:49.365Z,17.29
2022-08-28T03:42:15.982Z,17.35
2022-08-28T03:44:42.640Z,17.34
2022-08-28T03:47:09.226Z,17.37
2022-08-28T03:49:36.896Z,17.36
2022-08-28T03:52:03.759Z,17.40
2022-08-28T03:54:31.550Z,17.38
2022-08-28T03:56:58.449Z,17.35
2022-08-28T03:59:26.210Z,17.24
2022-08-28T04:01:58.305Z,17.16
2022-08-28T04:04:24.936Z,17.16
2022-08-28T04:06:51.517Z,17.10
2022-08-28T04:09:18.181Z,17.03
2022-08-28T04:11:44.757Z,16.92
2022-08-28T04:14:12.376Z,16.86
2022-08-28T04:16:39.099Z,16.73
2022-08-28T04:19:05.938Z,16.65
2022-08-28T04:21:32.622Z,16.68
2022-08-28T04:23:59.255Z,16.71
2022-08-28T04:26:27.409Z,16.79
2022-08-28T04:28:56.193Z,16.82
2022-08-28T04:31:31.094Z,16.78
2022-08-28T04:34:00.895Z,16.79
2022-08-28T04:36:27.541Z,16.96
2022-08-28T04:38:55.121Z,17.01
2022-08-28T04:41:21.972Z,17.11
2022-08-28T04:43:48.689Z,17.16
2022-08-28T04:46:15.619Z,16.99
2022-08-28T04:48:43.146Z,17.45
2022-08-28T04:51:11.515Z,17.62
2022-08-28T04:53:39.089Z,17.74
2022-08-28T04:56:08.013Z,17.91
2022-08-28T04:58:35.137Z,18.18
2022-08-28T05:01:18.922Z,19.03
2022-08-28T05:03:47.989Z,20.45
2022-08-28T05:06:16.368Z,21.40
2022-08-28T05:08:43.227Z,21.96
2022-08-28T05:11:34.305Z,22.78
2022-08-28T05:14:05.558Z,23.66
2022-08-28T05:16:34.461Z,24.13
2022-08-28T05:19:02.243Z,24.76
2022-08-28T05:21:29.040Z,25.36
2022-08-28T05:23:57.493Z,25.47
2022-08-28T05:26:26.742Z,25.06
2022-08-28T05:28:56.491Z,24.81
2022-08-28T05:31:24.488Z,24.83
2022-08-28T05:33:52.707Z,24.68
2022-08-28T05:36:22.711Z,24.68
2022-08-28T05:38:50.770Z,24.22
2022-08-28T05:41:25.049Z,24.08
2022-08-28T05:43:53.609Z,23.74
2022-08-28T05:46:21.045Z,23.69
2022-08-28T05:48:49.372Z,23.77
2022-08-28T05:51:19.469Z,23.55
2022-08-28T05:53:47.944Z,23.60
2022-08-28T05:56:20.601Z,23.50
2022-08-28T05:58:47.388Z,23.36
2022-08-28T06:01:19.816Z,23.26
2022-08-28T06:03:55.895Z,23.23
2022-08-28T06:06:24.727Z,23.29
2022-08-28T06:08:58.952Z,23.49
2022-08-28T06:11:30.999Z,23.45
2022-08-28T06:14:02.803Z,23.57
2022-08-28T06:16:31.787Z,23.62
2022-08-28T06:18:59.057Z,23.69
2022-08-28T06:21:26.144Z,23.63
2022-08-28T06:23:52.853Z,23.83
2022-08-28T06:26:19.506Z,23.99
2022-08-28T06:28:46.261Z,23.98
2022-08-28T06:31:25.078Z,24.13
2022-08-28T06:33:56.187Z,24.15
2022-08-28T06:36:23.863Z,24.15
2022-08-28T06:38:50.640Z,24.24
2022-08-28T06:41:17.270Z,24.52
2022-08-28T06:43:43.891Z,24.58
2022-08-28T06:46:10.757Z,24.64
2022-08-28T06:48:37.455Z,24.74
2022-08-28T06:51:08.161Z,24.87
2022-08-28T06:53:35.074Z,25.12
2022-08-28T06:56:11.319Z,25.12
2022-08-28T06:58:42.618Z,25.10
2022-08-28T07:01:22.861Z,25.12
2022-08-28T07:03:52.207Z,25.22
2022-08-28T07:06:21.138Z,25.22
2022-08-28T07:08:48.064Z,25.20
2022-08-28T07:11:22.192Z,25.50
2022-08-28T07:13:53.835Z,25.59
2022-08-28T07:16:23.410Z,25.39
2022-08-28T07:18:50.282Z,25.29
2022-08-28T07:21:17.246Z,25.11
2022-08-28T07:23:45.298Z,25.59
2022-08-28T07:26:15.968Z,25.55
2022-08-28T07:28:43.042Z,25.87
2022-08-28T07:31:18.604Z,25.61
2022-08-28T07:33:46.187Z,25.41
2022-08-28T07:36:28.702Z,25.44
2022-08-28T07:38:57.965Z,25.70
2022-08-28T07:41:28.516Z,25.53
2022-08-28T07:44:13.912Z,25.60
2022-08-28T07:46:41.236Z,26.04
2022-08-28T07:49:08.821Z,26.53
2022-08-28T07:51:35.926Z,26.76
2022-08-28T07:54:04.070Z,27.21
2022-08-28T07:56:31.956Z,27.63
2022-08-28T07:59:00.080Z,27.65
2022-08-28T08:01:30.830Z,27.22
2022-08-28T08:04:01.181Z,26.36
2022-08-28T08:06:33.811Z,25.23
2022-08-28T08:09:01.992Z,25.29
2022-08-28T08:11:32.193Z,25.44
2022-08-28T08:14:05.446Z,26.18
2022-08-28T08:16:35.956Z,26.31
2022-08-28T08:19:03.994Z,26.28
2022-08-28T08:21:31.696Z,26.11
2022-08-28T08:23:58.852Z,25.96
2022-08-28T08:26:28.262Z,25.73
2022-08-28T08:28:56.010Z,25.55
2022-08-28T08:31:32.296Z,25.81
2022-08-28T08:34:02.057Z,26.07
2022-08-28T08:36:30.077Z,26.17
2022-08-28T08:38:59.656Z,26.37
2022-08-28T08:41:39.160Z,26.27
2022-08-28T08:44:46.936Z,26.50
2022-08-28T08:47:27.241Z,26.56
2022-08-28T08:50:00.391Z,26.65
2022-08-28T08:52:35.750Z,26.80
2022-08-28T08:55:08.429Z,27.04
2022-08-28T08:57:38.192Z,26.92
2022-08-28T09:00:12.279Z,27.21
2022-08-28T09:02:50.347Z,27.29
2022-08-28T09:05:22.118Z,27.42
2022-08-28T09:08:01.673Z,27.55
2022-08-28T09:10:53.897Z,27.50
2022-08-28T09:13:27.926Z,27.60
2022-08-28T09:15:54.777Z,27.65
2022-08-28T09:18:27.141Z,27.51
2022-08-28T09:20:58.170Z,27.66
2022-08-28T09:23:27.321Z,27.72
2022-08-28T09:26:09.326Z,28.18
2022-08-28T09:28:40.895Z,28.47
2022-08-28T09:31:31.741Z,28.52
2022-08-28T09:34:24.401Z,28.54
2022-08-28T09:36:53.060Z,28.58
2022-08-28T09:39:32.135Z,28.59
2022-08-28T09:42:33.341Z,28.50
2022-08-28T09:45:16.265Z,28.58
2022-08-28T09:47:50.808Z,28.74
2022-08-28T09:50:43.525Z,28.97
2022-08-28T09:53:10.085Z,29.02
2022-08-28T09:55:50.227Z,29.20
2022-08-28T09:58:18.317Z,29.18
2022-08-28T10:01:06.143Z,29.29
2022-08-28T10:03:45.003Z,29.33
2022-08-28T10:06:18.637Z,29.50
2022-08-28T10:08:57.507Z,29.66
2022-08-28T10:11:28.918Z,29.63
2022-08-28T10:14:14.375Z,29.91
2022-08-28T10:16:59.701Z,30.04
2022-08-28T10:20:00.768Z,30.04
2022-08-28T10:22:36.128Z,29.89
2022-08-28T10:25:15.531Z,29.92
2022-08-28T10:27:42.204Z,29.95
2022-08-28T10:30:13.601Z,29.94
2022-08-28T10:32:43.115Z,30.04
2022-08-28T10:35:17.722Z,29.98
2022-08-28T10:37:47.595Z,29.80
2022-08-28T10:40:24.455Z,29.78
2022-08-28T10:43:14.927Z,30.20
2022-08-28T10:45:42.105Z,30.39
2022-08-28T10:48:47.608Z,30.50
2022-08-28T10:51:38.496Z,30.54
2022-08-28T10:54:39.605Z,30.28
2022-08-28T10:57:55.674Z,30.10
2022-08-28T11:00:25.575Z,30.28
2022-08-28T11:02:59.893Z,30.64
2022-08-28T11:05:32.664Z,30.60
2022-08-28T11:08:05.254Z,30.61
2022-08-28T11:10:34.978Z,30.98
2022-08-28T11:13:04.123Z,31.19
2022-08-28T11:15:36.675Z,31.24
2022-08-28T11:18:15.926Z,30.79
2022-08-28T11:20:58.299Z,30.95
2022-08-28T11:23:41.983Z,30.95
2022-08-28T11:26:12.802Z,31.09
2022-08-28T11:28:47.614Z,31.64
2022-08-28T11:31:16.354Z,32.04
2022-08-28T11:33:56.367Z,32.10
2022-08-28T11:36:22.916Z,31.86
2022-08-28T11:38:52.255Z,32.33
2022-08-28T11:41:22.715Z,32.53
2022-08-28T11:44:13.425Z,32.60
2022-08-28T11:46:41.129Z,32.66
2022-08-28T11:49:29.223Z,32.56
2022-08-28T11:52:23.839Z,32.28
2022-08-28T11:55:21.911Z,31.98
2022-08-28T11:58:19.893Z,31.93
2022-08-28T12:00:46.472Z,31.82
2022-08-28T12:03:42.009Z,31.82
2022-08-28T12:06:09.772Z,32.38
2022-08-28T12:08:46.638Z,32.84
2022-08-28T12:11:41.997Z,32.88
2022-08-28T12:14:31.831Z,32.88
2022-08-28T12:16:58.391Z,32.64
2022-08-28T12:19:55.791Z,32.22
2022-08-28T12:22:26.443Z,31.81
2022-08-28T12:25:06.120Z,31.67
2022-08-28T12:27:38.422Z,31.90
2022-08-28T12:30:05.938Z,31.96
2022-08-28T12:32:49.836Z,32.00
2022-08-28T12:35:43.949Z,32.26
2022-08-28T12:38:20.903Z,32.52
2022-08-28T12:40:50.784Z,32.64
2022-08-28T12:43:29.620Z,32.58
2022-08-28T12:46:19.971Z,32.63
2022-08-28T12:48:59.607Z,32.89
2022-08-28T12:51:32.123Z,32.72
2022-08-28T12:54:04.780Z,33.07
2022-08-28T12:56:38.949Z,33.19
2022-08-28T12:59:27.064Z,33.60
2022-08-28T13:01:54.942Z,33.88
2022-08-28T13:04:53.548Z,33.94
2022-08-28T13:07:35.105Z,33.75
2022-08-28T13:10:14.693Z,33.80
2022-08-28T13:12:55.013Z,33.86
2022-08-28T13:15:46.003Z,34.11
2022-08-28T13:18:55.344Z,34.12
2022-08-28T13:21:33.742Z,34.05
2022-08-28T13:24:21.639Z,33.88
2022-08-28T13:27:09.095Z,33.90
2022-08-28T13:29:37.089Z,33.95
2022-08-28T13:32:16.226Z,33.96
2022-08-28T13:35:16.599Z,34.30
2022-08-28T13:37:45.340Z,34.16
2022-08-28T13:40:38.162Z,34.33
2022-08-28T13:43:07.026Z,34.20
2022-08-28T13:45:43.216Z,34.32
2022-08-28T13:48:13.361Z,34.47
2022-08-28T13:50:44.756Z,34.58
2022-08-28T13:53:15.185Z,34.08
2022-08-28T13:55:41.784Z,33.83
2022-08-28T13:58:08.412Z,34.18
2022-08-28T14:00:39.721Z,33.99
2022-08-28T14:03:24.838Z,33.94
2022-08-28T14:05:51.546Z,33.93
2022-08-28T14:08:18.491Z,33.41
2022-08-28T14:10:45.232Z,33.17
2022-08-28T14:13:12.412Z,33.07
2022-08-28T14:15:39.271Z,32.76
2022-08-28T14:18:06.108Z,32.75
2022-08-28T14:20:32.876Z,32.62
2022-08-28T14:22:59.548Z,32.43
2022-08-28T14:25:26.204Z,32.62
2022-08-28T14:27:53.154Z,32.53
2022-08-28T14:30:19.924Z,32.66
2022-08-28T14:32:46.713Z,32.61
2022-08-28T14:35:13.416Z,32.73
2022-08-28T14:37:40.157Z,32.80
2022-08-28T14:40:07.905Z,32.74
2022-08-28T14:42:35.962Z,32.64
2022-08-28T14:45:04.245Z,32.50
2022-08-28T14:47:30.853Z,32.50
2022-08-28T14:49:57.515Z,32.34
2022-08-28T14:52:24.147Z,32.61
2022-08-28T14:54:51.131Z,32.85
2022-08-28T14:57:18.451Z,32.68
2022-08-28T14:59:45.304Z,32.16
2022-08-28T15:02:13.612Z,31.75
2022-08-28T15:04:40.210Z,31.87
2022-08-28T15:07:10.826Z,31.87
2022-08-28T15:09:40.475Z,31.85
2022-08-28T15:12:07.539Z,31.68
2022-08-28T15:14:36.688Z,31.52
2022-08-28T15:17:03.742Z,31.40
2022-08-28T15:19:30.455Z,31.17
2022-08-28T15:21:57.574Z,31.03
2022-08-28T15:24:28.612Z,30.69
2022-08-28T15:26:55.248Z,30.51
2022-08-28T15:29:22.002Z,30.50
2022-08-28T15:31:50.268Z,30.13
2022-08-28T15:34:22.953Z,29.75
2022-08-28T15:36:55.846Z,29.75
2022-08-28T15:39:42.867Z,29.66
2022-08-28T15:42:10.364Z,29.41
2022-08-28T15:44:37.471Z,29.16
2022-08-28T15:47:05.029Z,29.02
2022-08-28T15:49:38.889Z,28.92
2022-08-28T15:52:12.495Z,28.91
2022-08-28T15:54:39.559Z,28.79
2022-08-28T15:57:06.671Z,28.81
2022-08-28T15:59:48.315Z,28.66
2022-08-28T16:02:21.375Z,28.55
2022-08-28T16:04:48.622Z,28.56
2022-08-28T16:07:16.059Z,28.49
2022-08-28T16:09:42.748Z,28.40
2022-08-28T16:12:09.395Z,28.65
2022-08-28T16:14:36.264Z,28.69
2022-08-28T16:17:05.674Z,28.80
2022-08-28T16:19:38.458Z,28.75
2022-08-28T16:22:05.492Z,28.61
2022-08-28T16:24:32.140Z,28.39
2022-08-28T16:26:58.776Z,28.47
2022-08-28T16:29:26.385Z,28.31
2022-08-28T16:31:53.259Z,28.27
2022-08-28T16:34:20.279Z,28.22
2022-08-28T16:36:48.258Z,28.00
2022-08-28T16:39:15.325Z,27.76
2022-08-28T16:41:42.181Z,27.49
2022-08-28T16:44:09.152Z,27.25
2022-08-28T16:46:37.379Z,27.16
2022-08-28T16:49:04.244Z,27.03
2022-08-28T16:51:30.880Z,26.92
2022-08-28T16:53:57.912Z,26.81
2022-08-28T16:56:25.037Z,26.56
2022-08-28T16:58:52.982Z,26.47
2022-08-28T17:01:22.219Z,26.25
2022-08-28T17:03:52.006Z,26.26
2022-08-28T17:06:23.385Z,26.16
2022-08-28T17:08:55.883Z,26.19
2022-08-28T17:11:24.531Z,26.05
2022-08-28T17:13:51.341Z,26.00
2022-08-28T17:16:19.608Z,25.95
2022-08-28T17:18:47.458Z,25.78
2022-08-28T17:21:37.720Z,25.77
2022-08-28T17:24:05.646Z,25.67
2022-08-28T17:26:32.407Z,25.55
2022-08-28T17:28:59.044Z,25.62
2022-08-28T17:31:25.709Z,25.82
2022-08-28T17:33:52.402Z,25.81
2022-08-28T17:36:30.710Z,25.97
2022-08-28T17:39:01.584Z,25.99
2022-08-28T17:41:28.247Z,26.00
2022-08-28T17:43:55.325Z,25.85
2022-08-28T17:46:22.172Z,25.81
2022-08-28T17:48:55.794Z,25.80
2022-08-28T17:51:40.418Z,25.76
2022-08-28T17:54:13.055Z,25.67
2022-08-28T17:56:40.228Z,25.69
2022-08-28T17:59:07.206Z,25.54
2022-08-28T18:01:34.218Z,25.38
2022-08-28T18:04:00.934Z,25.42
2022-08-28T18:06:27.697Z,25.31
2022-08-28T18:08:54.612Z,25.22
2022-08-28T18:11:21.311Z,25.18
2022-08-28T18:13:47.953Z,25.24
2022-08-28T18:16:14.845Z,25.20
2022-08-28T18:18:42.080Z,25.16
2022-08-28T18:21:13.954Z,25.15
2022-08-28T18:23:40.826Z,25.15
2022-08-28T18:26:09.166Z,25.03
2022-08-28T18:28:37.217Z,25.08
2022-08-28T18:31:06.492Z,25.04
2022-08-28T18:33:34.183Z,25.01
2022-08-28T18:36:01.435Z,24.98
2022-08-28T18:38:28.830Z,24.88
2022-08-28T18:40:57.338Z,24.89
2022-08-28T18:43:27.447Z,25.00
2022-08-28T18:45:54.295Z,25.09
2022-08-28T18:48:21.679Z,25.06
2022-08-28T18:50:48.925Z,25.02
2022-08-28T18:53:17.146Z,24.98
2022-08-28T18:55:45.964Z,24.84
2022-08-28T18:58:15.013Z,24.84
2022-08-28T19:00:42.319Z,24.77
2022-08-28T19:03:09.348Z,24.57
2022-08-28T19:05:37.139Z,24.43
2022-08-28T19:08:04.539Z,24.31
2022-08-28T19:10:34.655Z,24.22
2022-08-28T19:13:02.461Z,24.33
2022-08-28T19:15:30.230Z,24.31
2022-08-28T19:17:57.673Z,24.21
2022-08-28T19:20:24.402Z,24.22
2022-08-28T19:22:51.566Z,24.19
2022-08-28T19:25:22.427Z,24.22
2022-08-28T19:27:58.629Z,23.99
2022-08-28T19:30:27.485Z,23.75
2022-08-28T19:32:54.287Z,23.59
2022-08-28T19:35:24.263Z,23.45
2022-08-28T19:37:54.315Z,23.37
2022-08-28T19:40:22.183Z,23.34
2022-08-28T19:42:50.074Z,23.13
2022-08-28T19:45:17.877Z,22.89
2022-08-28T19:47:45.068Z,22.68
2022-08-28T19:50:13.025Z,22.63
2022-08-28T19:52:40.349Z,22.47
2022-08-28T19:55:08.433Z,22.28
2022-08-28T19:57:35.811Z,22.12
2022-08-28T20:00:04.689Z,22.00
2022-08-28T20:02:31.504Z,21.99
2022-08-28T20:04:58.117Z,22.00
2022-08-28T20:07:25.029Z,21.91
2022-08-28T20:09:52.207Z,21.90
2022-08-28T20:12:19.768Z,21.89
2022-08-28T20:14:47.182Z,21.79
2022-08-28T20:17:14.135Z,21.76
2022-08-28T20:19:41.327Z,21.77
2022-08-28T20:22:08.206Z,21.79
2022-08-28T20:24:35.238Z,21.81
2022-08-28T20:27:02.273Z,21.74
2022-08-28T20:29:29.281Z,21.88
2022-08-28T20:31:55.904Z,21.94
2022-08-28T20:34:23.174Z,21.98
2022-08-28T20:36:49.776Z,22.05
2022-08-28T20:39:20.674Z,21.98
2022-08-28T20:41:48.194Z,22.03
2022-08-28T20:44:18.792Z,22.06
2022-08-28T20:46:51.220Z,22.06
2022-08-28T20:49:22.113Z,22.28
2022-08-28T20:51:58.862Z,22.42
2022-08-28T20:54:34.414Z,22.60
2022-08-28T20:57:03.652Z,22.70
2022-08-28T20:59:39.334Z,22.69
2022-08-28T21:02:13.964Z,22.67
2022-08-28T21:04:42.368Z,22.71
2022-08-28T21:07:10.514Z,22.68
2022-08-28T21:10:05.506Z,22.63
2022-08-28T21:12:24.728Z,22.56
2022-08-28T21:14:52.866Z,22.52
2022-08-28T21:17:28.822Z,22.45
2022-08-28T21:19:59.258Z,22.35
2022-08-28T21:22:25.877Z,22.32
2022-08-28T21:24:52.535Z,22.29
2022-08-28T21:27:19.151Z,22.20
2022-08-28T21:29:46.143Z,22.20
2022-08-28T21:32:13.448Z,22.13
2022-08-28T21:34:40.077Z,22.02
2022-08-28T21:37:07.308Z,21.96
2022-08-28T21:39:34.803Z,21.74
2022-08-28T21:42:01.366Z,21.75
2022-08-28T21:44:28.169Z,21.60
2022-08-28T21:46:55.047Z,21.55
2022-08-28T21:49:22.761Z,21.47
2022-08-28T21:51:50.610Z,21.39
2022-08-28T21:54:18.656Z,21.35
2022-08-28T21:56:46.299Z,21.22
2022-08-28T21:59:15.544Z,21.13
2022-08-28T22:01:42.351Z,20.98
2022-08-28T22:04:09.953Z,20.85
2022-08-28T22:06:36.664Z,20.89
2022-08-28T22:09:05.425Z,20.93
2022-08-28T22:11:33.548Z,20.94
2022-08-28T22:14:00.876Z,20.96
2022-08-28T22:16:28.259Z,20.82
2022-08-28T22:18:54.982Z,21.04
2022-08-28T22:21:44.211Z,21.10
2022-08-28T22:24:12.585Z,21.05
2022-08-28T22:26:40.872Z,21.06
2022-08-28T22:29:08.033Z,21.05
2022-08-28T22:31:35.172Z,21.07
2022-08-28T22:34:06.027Z,21.09
2022-08-28T22:36:33.084Z,21.02
2022-08-28T22:39:00.015Z,21.05
2022-08-28T22:41:26.888Z,21.13
2022-08-28T22:43:53.900Z,21.11
2022-08-28T22:46:20.800Z,21.16
2022-08-28T22:48:47.756Z,21.17
2022-08-28T22:51:18.538Z,21.12
2022-08-28T22:53:45.772Z,21.06
2022-08-28T22:56:13.501Z,21.04
2022-08-28T22:58:40.507Z,20.97
2022-08-28T23:01:11.968Z,21.00
2022-08-28T23:03:39.674Z,20.99
2022-08-28T23:06:06.563Z,20.97
2022-08-28T23:08:34.213Z,20.91
2022-08-28T23:11:01.348Z,20.87
2022-08-28T23:13:28.640Z,20.87
2022-08-28T23:15:55.320Z,20.78
2022-08-28T23:18:22.343Z,20.73
2022-08-28T23:20:50.731Z,20.39
2022-08-28T23:23:19.047Z,20.20
2022-08-28T23:25:45.974Z,20.13
2022-08-28T23:28:13.271Z,20.10
2022-08-28T23:30:44.023Z,20.06
2022-08-28T23:33:23.512Z,19.87
2022-08-28T23:35:51.988Z,19.60
2022-08-28T23:38:19.232Z,19.54
2022-08-28T23:40:48.117Z,19.59
2022-08-28T23:43:15.483Z,19.53
2022-08-28T23:45:43.618Z,19.56
2022-08-28T23:48:11.158Z,19.56
2022-08-28T23:50:41.275Z,19.52
2022-08-28T23:53:09.113Z,19.53
2022-08-28T23:55:36.778Z,19.54
2022-08-28T23:58:04.111Z,19.53
